createdAt,value
2023-03-03T00:01:24.103Z,80.67
2023-03-03T00:03:50.657Z,80.68
2023-03-03T00:06:17.050Z,80.67
2023-03-03T00:08:43.350Z,80.72
2023-03-03T00:11:09.940Z,80.78
2023-03-03T00:13:40.474Z,81.15
2023-03-03T00:16:25.152Z,81.95
2023-03-03T00:18:52.317Z,82.39
2023-03-03T00:21:22.770Z,82.70
2023-03-03T00:23:49.126Z,82.64
2023-03-03T00:26:21.298Z,82.30
2023-03-03T00:28:48.895Z,82.20
2023-03-03T00:31:18.319Z,81.85
2023-03-03T00:33:53.054Z,81.83
2023-03-03T00:36:22.607Z,81.65
2023-03-03T00:38:49.447Z,81.47
2023-03-03T00:41:21.968Z,81.71
2023-03-03T00:43:48.231Z,81.45
2023-03-03T00:46:18.829Z,80.93
2023-03-03T00:48:46.315Z,81.13
2023-03-03T00:51:18.557Z,81.32
2023-03-03T00:53:45.036Z,81.67
2023-03-03T00:56:11.354Z,81.73
2023-03-03T00:58:37.762Z,81.98
2023-03-03T01:01:04.474Z,82.20
2023-03-03T01:03:38.357Z,83.36
2023-03-03T01:06:04.713Z,83.94
2023-03-03T01:08:32.124Z,84.15
2023-03-03T01:11:02.690Z,84.15
2023-03-03T01:13:30.800Z,84.01
2023-03-03T01:15:57.966Z,83.88
2023-03-03T01:18:24.445Z,83.63
2023-03-03T01:20:51.148Z,83.34
2023-03-03T01:23:17.459Z,83.29
2023-03-03T01:25:43.861Z,82.93
2023-03-03T01:28:10.244Z,83.06
2023-03-03T01:30:37.014Z,83.11
2023-03-03T01:33:03.367Z,83.06
2023-03-03T01:35:29.804Z,82.79
2023-03-03T01:37:56.270Z,82.93
2023-03-03T01:40:24.219Z,82.74
2023-03-03T01:42:50.932Z,82.11
2023-03-03T01:45:25.084Z,81.76
2023-03-03T01:47:51.332Z,81.69
2023-03-03T01:50:24.460Z,81.47
2023-03-03T01:52:50.821Z,81.18
2023-03-03T01:55:23.093Z,81.23
2023-03-03T01:57:54.580Z,81.13
2023-03-03T02:00:21.041Z,81.26
2023-03-03T02:02:48.142Z,81.74
2023-03-03T02:05:15.871Z,82.19
2023-03-03T02:07:43.490Z,82.51
2023-03-03T02:10:14.496Z,82.17
2023-03-03T02:12:42.681Z,81.69
2023-03-03T02:15:29.131Z,81.43
2023-03-03T02:17:58.643Z,81.39
2023-03-03T02:20:43.953Z,81.42
2023-03-03T02:23:10.594Z,81.60
2023-03-03T02:25:43.343Z,81.54
2023-03-03T02:28:09.681Z,81.69
2023-03-03T02:30:37.251Z,81.98
2023-03-03T02:33:03.766Z,82.46
2023-03-03T02:35:32.106Z,82.79
2023-03-03T02:38:07.144Z,82.81
2023-03-03T02:40:37.529Z,82.74
2023-03-03T02:43:06.244Z,82.68
2023-03-03T02:45:32.875Z,82.86
2023-03-03T02:47:59.396Z,82.92
2023-03-03T02:50:25.862Z,83.08
2023-03-03T02:52:52.362Z,82.78
2023-03-03T02:55:19.136Z,82.73
2023-03-03T02:57:45.414Z,82.76
2023-03-03T03:00:11.896Z,82.75
2023-03-03T03:03:09.700Z,83.01
2023-03-03T03:05:37.961Z,83.06
2023-03-03T03:08:04.588Z,82.70
2023-03-03T03:10:31.146Z,82.16
2023-03-03T03:12:58.013Z,81.78
2023-03-03T03:15:24.649Z,81.59
2023-03-03T03:17:51.011Z,81.47
2023-03-03T03:20:18.200Z,81.47
2023-03-03T03:22:44.738Z,81.96
2023-03-03T03:25:11.144Z,82.39
2023-03-03T03:27:37.992Z,81.92
2023-03-03T03:30:05.072Z,81.75
2023-03-03T03:32:32.118Z,82.01
2023-03-03T03:34:59.589Z,82.32
2023-03-03T03:37:25.991Z,82.89
2023-03-03T03:39:52.557Z,83.04
2023-03-03T03:42:19.201Z,82.97
2023-03-03T03:44:45.452Z,82.90
2023-03-03T03:47:11.763Z,83.09
2023-03-03T03:49:38.088Z,83.33
2023-03-03T03:52:05.114Z,83.42
2023-03-03T03:54:32.532Z,83.41
2023-03-03T03:56:58.997Z,83.61
2023-03-03T03:59:25.701Z,83.47
2023-03-03T04:01:52.301Z,83.22
2023-03-03T04:04:19.014Z,83.48
2023-03-03T04:06:45.349Z,83.76
2023-03-03T04:09:12.805Z,83.82
2023-03-03T04:11:39.357Z,83.85
2023-03-03T04:14:06.912Z,83.74
2023-03-03T04:16:34.339Z,83.21
2023-03-03T04:19:01.164Z,82.38
2023-03-03T04:21:28.218Z,82.05
2023-03-03T04:23:55.807Z,81.80
2023-03-03T04:26:22.378Z,81.72
2023-03-03T04:28:48.885Z,81.45
2023-03-03T04:31:15.680Z,81.50
2023-03-03T04:33:42.144Z,81.51
2023-03-03T04:36:08.574Z,81.17
2023-03-03T04:38:34.918Z,81.21
2023-03-03T04:41:01.650Z,81.45
2023-03-03T04:43:31.329Z,81.72
2023-03-03T04:45:57.895Z,82.13
2023-03-03T04:48:24.431Z,82.45
2023-03-03T04:50:52.283Z,82.58
2023-03-03T04:53:19.180Z,82.78
2023-03-03T04:55:45.945Z,82.90
2023-03-03T04:58:12.715Z,82.54
2023-03-03T05:00:39.575Z,82.78
2023-03-03T05:03:06.663Z,82.86
2023-03-03T05:05:33.129Z,82.42
2023-03-03T05:07:59.407Z,82.24
2023-03-03T05:10:25.663Z,82.06
2023-03-03T05:12:51.942Z,82.42
2023-03-03T05:15:18.265Z,83.35
2023-03-03T05:17:44.540Z,84.11
2023-03-03T05:20:11.307Z,84.97
2023-03-03T05:22:37.680Z,85.32
2023-03-03T05:25:05.129Z,85.52
2023-03-03T05:27:31.500Z,85.99
2023-03-03T05:29:57.796Z,86.05
2023-03-03T05:32:24.404Z,86.03
2023-03-03T05:34:50.751Z,86.24
2023-03-03T05:37:17.116Z,86.09
2023-03-03T05:39:43.483Z,85.67
2023-03-03T05:42:11.374Z,85.40
2023-03-03T05:44:37.772Z,85.48
2023-03-03T05:47:04.157Z,85.50
2023-03-03T05:49:30.398Z,85.66
2023-03-03T05:51:56.668Z,85.90
2023-03-03T05:54:23.133Z,86.12
2023-03-03T05:56:49.402Z,86.29
2023-03-03T05:59:15.744Z,86.44
2023-03-03T06:01:42.396Z,86.44
2023-03-03T06:04:08.764Z,86.48
2023-03-03T06:06:35.041Z,86.41
2023-03-03T06:09:01.624Z,86.47
2023-03-03T06:11:27.908Z,86.39
2023-03-03T06:13:54.240Z,86.37
2023-03-03T06:16:20.563Z,86.31
2023-03-03T06:18:46.937Z,86.27
2023-03-03T06:21:13.263Z,86.22
2023-03-03T06:23:40.126Z,86.21
2023-03-03T06:26:06.438Z,86.30
2023-03-03T06:28:32.872Z,86.41
2023-03-03T06:30:59.218Z,86.37
2023-03-03T06:33:25.686Z,86.21
2023-03-03T06:35:52.694Z,86.10
2023-03-03T06:38:19.106Z,86.12
2023-03-03T06:40:45.851Z,86.06
2023-03-03T06:43:12.491Z,86.08
2023-03-03T06:45:38.958Z,86.09
2023-03-03T06:48:05.674Z,86.00
2023-03-03T06:50:32.104Z,86.29
2023-03-03T06:53:07.124Z,86.11
2023-03-03T06:55:33.493Z,86.21
2023-03-03T06:58:00.396Z,86.27
2023-03-03T07:00:29.575Z,86.42
2023-03-03T07:02:58.784Z,86.35
2023-03-03T07:05:27.164Z,86.51
2023-03-03T07:07:55.046Z,86.42
2023-03-03T07:10:25.429Z,86.56
2023-03-03T07:12:52.172Z,86.53
2023-03-03T07:15:21.340Z,86.58
2023-03-03T07:20:42.848Z,86.31
2023-03-03T07:23:18.657Z,85.82
2023-03-03T07:25:45.376Z,85.66
2023-03-03T07:28:28.484Z,85.51
2023-03-03T07:30:58.101Z,85.49
2023-03-03T07:33:50.210Z,85.49
2023-03-03T07:36:30.802Z,85.53
2023-03-03T07:38:59.515Z,85.37
2023-03-03T07:41:26.947Z,85.23
2023-03-03T07:44:04.743Z,84.97
2023-03-03T07:46:34.661Z,85.07
2023-03-03T07:49:05.789Z,84.91
2023-03-03T07:51:37.638Z,84.63
2023-03-03T07:54:17.791Z,84.52
2023-03-03T07:56:47.104Z,84.92
2023-03-03T07:59:21.554Z,85.00
2023-03-03T08:01:52.747Z,85.23
2023-03-03T08:04:19.275Z,85.31
2023-03-03T08:06:53.683Z,85.72
2023-03-03T08:09:29.364Z,85.93
2023-03-03T08:11:59.604Z,86.09
2023-03-03T08:14:28.494Z,86.31
2023-03-03T08:16:55.739Z,86.18
2023-03-03T08:19:22.752Z,86.07
2023-03-03T08:21:49.390Z,85.92
2023-03-03T08:24:15.721Z,85.85
2023-03-03T08:26:42.018Z,85.44
2023-03-03T08:29:08.351Z,85.33
2023-03-03T08:31:41.598Z,85.23
2023-03-03T08:34:08.730Z,85.04
2023-03-03T08:36:35.358Z,85.10
2023-03-03T08:39:02.938Z,84.98
2023-03-03T08:41:42.681Z,85.14
2023-03-03T08:44:11.912Z,85.22
2023-03-03T08:46:38.400Z,85.56
2023-03-03T08:49:05.206Z,85.51
2023-03-03T08:51:31.634Z,85.74
2023-03-03T08:53:58.289Z,86.01
2023-03-03T08:56:24.952Z,86.11
2023-03-03T08:59:02.114Z,86.20
2023-03-03T09:01:31.036Z,86.40
2023-03-03T09:03:57.612Z,86.39
2023-03-03T09:06:24.400Z,86.21
2023-03-03T09:08:51.088Z,86.49
2023-03-03T09:11:21.518Z,86.84
2023-03-03T09:13:47.842Z,86.96
2023-03-03T09:16:14.903Z,86.84
2023-03-03T09:18:41.999Z,87.02
2023-03-03T09:21:21.884Z,87.35
2023-03-03T09:23:55.801Z,87.28
2023-03-03T09:26:26.707Z,87.03
2023-03-03T09:29:07.940Z,87.18
2023-03-03T09:31:37.132Z,86.96
2023-03-03T09:34:19.245Z,87.20
2023-03-03T09:36:45.672Z,86.97
2023-03-03T11:56:43.094Z,86.54
2023-03-03T11:59:28.342Z,86.25
2023-03-03T12:02:01.329Z,85.73
2023-03-03T12:04:34.376Z,85.66
2023-03-03T12:07:33.818Z,85.66
2023-03-03T12:10:15.887Z,85.29
2023-03-03T12:13:01.378Z,85.48
2023-03-03T12:15:44.339Z,85.19
2023-03-03T12:18:17.110Z,84.82
2023-03-03T12:20:48.412Z,84.94
2023-03-03T12:23:14.915Z,84.93
2023-03-03T12:25:46.914Z,84.97
2023-03-03T12:28:22.119Z,84.95
2023-03-03T12:30:49.472Z,84.87
2023-03-03T12:33:33.692Z,84.92
2023-03-03T12:36:06.513Z,84.90
2023-03-03T12:38:42.706Z,84.54
2023-03-03T12:41:14.865Z,84.19
2023-03-03T12:43:56.493Z,84.19
2023-03-03T12:46:42.713Z,84.22
2023-03-03T12:49:14.799Z,83.36
2023-03-03T12:52:31.815Z,83.22
2023-03-03T12:55:20.317Z,82.99
2023-03-03T12:58:01.939Z,82.89
2023-03-03T13:00:49.948Z,82.50
2023-03-03T13:03:30.335Z,82.31
2023-03-03T13:06:07.302Z,81.77
2023-03-03T13:08:37.620Z,81.02
2023-03-03T13:11:29.969Z,81.10
2023-03-03T13:14:10.788Z,79.47
2023-03-03T13:16:42.701Z,79.14
2023-03-03T13:19:25.877Z,78.80
2023-03-03T13:22:06.869Z,78.61
2023-03-03T13:24:52.326Z,78.62
2023-03-03T13:27:31.853Z,78.03
2023-03-03T13:30:11.489Z,77.95
2023-03-03T13:32:44.170Z,77.82
2023-03-03T13:35:30.728Z,77.81
2023-03-03T13:37:57.898Z,78.08
2023-03-03T13:40:36.541Z,77.85
2023-03-03T13:43:19.202Z,77.82
2023-03-03T13:46:04.723Z,76.93
2023-03-03T13:48:35.704Z,77.33
2023-03-03T13:51:09.752Z,77.35
2023-03-03T13:53:55.020Z,77.77
2023-03-03T13:56:34.463Z,77.66
2023-03-03T13:59:08.402Z,77.53
2023-03-03T14:01:51.112Z,77.76
2023-03-03T14:04:36.306Z,77.70
2023-03-03T14:07:17.695Z,77.27
2023-03-03T14:10:01.340Z,77.78
2023-03-03T14:12:36.884Z,77.86
2023-03-03T14:15:20.603Z,78.28
2023-03-03T14:17:50.301Z,78.32
2023-03-03T14:20:23.567Z,78.23
2023-03-03T14:22:53.362Z,78.03
2023-03-03T14:25:22.364Z,78.29
2023-03-03T14:28:10.479Z,77.74
2023-03-03T14:30:38.681Z,77.50
2023-03-03T14:33:10.772Z,77.99
2023-03-03T14:35:41.669Z,78.16
2023-03-03T14:38:08.165Z,78.25
2023-03-03T14:40:38.547Z,78.38
2023-03-03T14:43:18.070Z,78.68
2023-03-03T14:45:45.967Z,78.67
2023-03-03T14:48:26.495Z,78.91
2023-03-03T14:50:59.884Z,79.00
2023-03-03T14:53:46.586Z,78.89
2023-03-03T14:56:24.026Z,79.33
2023-03-03T14:58:51.477Z,79.54
2023-03-03T15:01:32.195Z,79.68
2023-03-03T15:04:04.860Z,79.62
2023-03-03T15:06:42.518Z,79.81
2023-03-03T15:09:24.326Z,80.00
2023-03-03T15:11:52.083Z,80.14
2023-03-03T15:14:30.116Z,80.20
2023-03-03T15:17:16.296Z,80.27
2023-03-03T15:19:48.320Z,80.46
2023-03-03T15:22:28.472Z,80.50
2023-03-03T15:25:13.826Z,80.50
2023-03-03T15:28:39.323Z,80.65
2023-03-03T15:31:15.878Z,80.82
2023-03-03T15:33:50.435Z,81.07
2023-03-03T15:36:25.524Z,81.04
2023-03-03T15:38:59.386Z,81.27
2023-03-03T15:41:37.103Z,81.39
2023-03-03T15:44:26.911Z,81.46
2023-03-03T15:47:17.168Z,81.72
2023-03-03T15:50:10.633Z,81.55
2023-03-03T15:52:55.570Z,81.58
2023-03-03T15:55:23.777Z,81.90
2023-03-03T15:57:59.845Z,82.11
2023-03-03T16:00:44.696Z,82.18
2023-03-03T16:03:19.150Z,82.29
2023-03-03T16:05:51.870Z,82.52
2023-03-03T16:08:29.816Z,82.77
2023-03-03T16:11:03.989Z,82.71
2023-03-03T16:13:56.473Z,82.96
2023-03-03T16:16:49.169Z,82.85
2023-03-03T16:19:40.965Z,83.09
2023-03-03T16:22:13.775Z,83.30
2023-03-03T16:24:46.853Z,83.41
2023-03-03T16:27:35.208Z,83.62
2023-03-03T16:30:30.417Z,83.67
2023-03-03T16:33:20.105Z,83.74
2023-03-03T16:35:57.561Z,83.89
2023-03-03T16:38:36.811Z,84.25
2023-03-03T16:41:15.311Z,84.10
2023-03-03T16:44:15.667Z,84.31
2023-03-03T16:46:47.087Z,84.39
2023-03-03T16:49:26.404Z,84.50
2023-03-03T16:52:31.745Z,84.46
2023-03-03T16:55:10.909Z,84.78
2023-03-03T16:58:06.921Z,84.84
2023-03-03T17:00:40.804Z,84.83
2023-03-03T17:03:27.102Z,84.91
2023-03-03T17:06:26.236Z,85.09
2023-03-03T17:09:08.939Z,84.90
2023-03-03T17:12:10.186Z,85.19
2023-03-03T17:15:10.217Z,85.19
2023-03-03T17:18:18.891Z,85.39
2023-03-03T17:20:55.069Z,85.36
